TFM - Tactical Decision Aid
ID: Runway Winds: CIG/VIS Threshold:

KDFW - Dallas-Ft Worth Intl, TX, US

Updated at: 0234 UTC 12 May 2021
Latest TAF at: 2327 UTC 11 May 2021

TAF Board

Time0153Z 12/03Z 12/04Z 12/05Z 12/06Z 12/07Z 12/08Z 12/09Z 12/10Z 12/11Z 12/12Z 12/13Z 12/14Z 12/15Z>>
Type OBS PRVL PRVL PRVL PRVL PRVL PRVL PRVL PRVL PRVL PRVL PRVL PRVL PRVL
VIS 10 5 5 5 >6 >6 >6 >6 >6 >6 >6 >6 >6 >6
CIG 8 5 5 5 4 4 4 4 4 4 4 4 4 7
Cover OVC OVC OVC OVC OVC OVC OVC OVC OVC OVC OVC OVC OVC OVC
FltCat IFR IFR IFR IFR LIFR LIFR LIFR LIFR LIFR LIFR LIFR LIFR LIFR IFR
WX -- BR BR BR -- -- -- -- -- -- -- -- -- --
WDir 360 30 30 30 30 30 30 30 30 30 30 30 30 40
WSpd 9 10 10 10 10 10 10 10 10 10 10 10 10 11
WGst -- -- -- -- -- -- -- -- -- -- -- -- -- --

TDA Impact Legend

  None Marginal Slight Moderate High
Visibility (sm) >5 3≤X≤5 1≤X<3 0.5≤X<1 <0.5
Ceiling (100 ft) >30 10≤X≤30 4≤X<10 2≤X<4 <2
Wind Speed (kt) <15 15≤X<25 25≤X<30 ≥30
Wind Gust (kt) <15 15≤X<25 25≤X<35 ≥35
Weather No Wx Reported VCTS -TS,-FZRA TS,FZRA +TS,+FZRA
TAF
KDFW 112327Z 1200/1306 36011KT P6SM OVC005
  FM120300 03010KT 5SM BR OVC005
  FM120600 03010KT P6SM OVC004
  FM121500 04011KT P6SM OVC007
  FM122100 04011KT P6SM BKN010
  FM130200 03010KT P6SM BKN025


METAR
KDFW 120153Z 36009KT 10SM OVC008 16/14 A3004 RMK AO2 SLP169 T01560139 $
KDFW 120053Z 01008KT 10SM OVC007 16/14 A3002 RMK AO2 SLP161 T01560139 $
KDFW 112353Z 01013G19KT 10SM OVC007 16/14 A2997 RMK AO2 SLP146 60075 T01560144 10167 20144 55002 $

Radar Display
Forecast Discussion